Ana Sayfa
METAR-TAF:

METAR-TAF

Havaalanları :

Joliet Regional Airport

Joliet, Illinois, Amerika Birleşik Devletleri

Enlem: 41-31-05N, Boylam: 088-10-31W, yükseklik: 177 m

Güncel hava durumu gözlemi

Rapor saat 08:15 UTC de 38 dakika önce yapıldı.
Rüzgar güney/güneybatıdan 6 kt
Sıcaklık 21°C
Nem 88%
Basınç 1013 hPa
Görüş mesafesi: 16.1 km
1300 ft yükseklikte parçalı çok bulutlu
2600 ft yükseklikte parçalı çok bulutlu

METAR: KJOT 250815Z AUTO 20006KT 10SM BKN013 BKN026 21/19 A2990 RMK AO2 T02110192

Saat: 03:53 (08:53 UTC)


TAF: eksik

4.000'den fazla havaalanı için hava durumu gözlemleri ve tahminleri (METAR ve TAF raporları).

Kullanılabilir istasyonlar harita üzerinde sarı ve kırmızı noktalarla gösterilir.

İstasyonun adını görmek için fareyi noktanın üzerinde gezdirin.

Sonrasında hava gözlem ve tahminlerini görmek için tıklayın.

Haritayı değiştirmek için: yaklaştırmak için siyah artı işaretli yeşil düğmeye ve uzaklaştırmak için de eksi işaretli düğmeye hızla tıklayın; bitişik haritalar için yeşil okları kullanın.


METAR-TAF: